Time;durP1;ratioP1;P1;durP2;ratioP2;P2;SDS_P1;SDS_P2;PMS_P1;PMS_P2;Temp;Humidity;BMP_temperature;BMP_pressure;BME280_temperature;BME280_humidity;BME280_pressure;Samples;Min_cycle;Max_cycle;Signal;HPM_P1;HPM_P2
2022/11/05 00:10:28;;;;;;;2.93;2.73;;;11.20;78.70;11.40;96033.00;;;;5007752;28;20280;-82
2022/11/05 00:18:31;;;;;;;2.60;2.40;;;11.30;78.70;11.50;96032.00;;;;5010822;28;20257;-82
2022/11/05 00:20:58;;;;;;;3.37;3.07;;;11.30;78.70;11.50;96030.00;;;;5011470;28;20245;-82
2022/11/05 00:26:11;;;;;;;3.00;2.77;;;11.30;78.50;11.50;96026.00;;;;5002597;28;20256;-82
2022/11/05 00:28:42;;;;;;;2.90;2.60;;;11.40;78.60;11.50;96032.00;;;;5013431;28;20289;-83
2022/11/05 00:31:13;;;;;;;4.47;3.27;;;11.40;78.60;11.60;96034.00;;;;5013747;28;20202;-82
2022/11/05 00:33:42;;;;;;;2.73;2.53;;;11.40;78.60;11.60;96048.00;;;;5010157;28;20238;-82
2022/11/05 00:36:11;;;;;;;3.03;2.83;;;11.40;78.60;11.60;96050.00;;;;5012688;28;20717;-82
2022/11/05 00:38:38;;;;;;;2.77;2.43;;;11.40;78.50;11.60;96054.00;;;;5010302;28;20230;-82
2022/11/05 00:41:06;;;;;;;3.07;2.77;;;11.40;78.50;11.60;96054.00;;;;5013601;28;20244;-83
2022/11/05 00:46:19;;;;;;;2.63;2.43;;;11.40;78.40;11.70;96061.00;;;;5011782;28;20197;-83
2022/11/05 00:51:31;;;;;;;2.97;2.67;;;11.50;78.50;11.70;96062.00;;;;5012714;28;20208;-83
2022/11/05 00:53:58;;;;;;;2.53;2.33;;;11.50;78.50;11.70;96054.00;;;;5013095;28;20230;-83
2022/11/05 00:56:26;;;;;;;2.83;2.63;;;11.50;78.50;11.70;96069.00;;;;5013304;28;20233;-83
2022/11/05 00:58:53;;;;;;;2.80;2.60;;;11.50;78.40;11.70;96069.00;;;;5013262;28;20198;-83
2022/11/05 01:01:21;;;;;;;2.57;2.37;;;11.50;78.50;11.70;96076.00;;;;5016637;28;20580;-83
2022/11/05 01:03:48;;;;;;;2.50;2.30;;;11.60;78.60;11.70;96070.00;;;;5008865;28;20302;-82
2022/11/05 01:06:17;;;;;;;2.77;2.57;;;11.60;78.50;11.70;96068.00;;;;5011891;28;20202;-82
2022/11/05 01:08:46;;;;;;;2.27;2.17;;;11.60;78.50;11.80;96072.00;;;;5011941;28;20633;-83
2022/11/05 01:11:31;;;;;;;2.80;2.50;;;11.60;78.50;11.80;96072.00;;;;5011853;28;20233;-83
2022/11/05 01:13:59;;;;;;;2.60;2.40;;;11.60;78.50;11.80;96066.00;;;;5010982;28;20269;-83
2022/11/05 01:16:31;;;;;;;2.47;2.27;;;11.70;78.50;11.80;96076.00;;;;5013233;28;20621;-81
2022/11/05 01:18:59;;;;;;;2.23;2.13;;;11.60;78.50;11.80;96078.00;;;;5006901;28;20612;-83
2022/11/05 01:21:26;;;;;;;2.53;2.20;;;11.60;78.50;11.80;96077.00;;;;5012693;28;20876;-83
2022/11/05 01:23:53;;;;;;;2.90;2.60;;;11.60;78.50;11.90;96081.00;;;;5010071;28;20680;-83
2022/11/05 01:26:21;;;;;;;2.63;2.33;;;11.70;78.50;11.90;96081.00;;;;5012570;28;20240;-82
2022/11/05 01:28:51;;;;;;;2.30;2.10;;;11.70;78.50;11.90;96089.00;;;;5013990;28;20254;-83
2022/11/05 01:31:18;;;;;;;2.60;2.40;;;11.70;78.60;11.90;96092.00;;;;5007116;28;20198;-83
2022/11/05 01:33:47;;;;;;;2.50;2.30;;;11.70;78.60;11.90;96090.00;;;;5018866;28;20252;-83
2022/11/05 01:36:15;;;;;;;3.13;2.47;;;11.70;78.70;11.90;96094.00;;;;5013473;28;20264;-83
2022/11/05 01:38:42;;;;;;;2.83;2.60;;;11.70;78.70;11.90;96084.00;;;;5009110;28;20299;-83
2022/11/05 01:41:10;;;;;;;2.43;2.30;;;11.70;78.80;11.90;96083.00;;;;5012453;28;20198;-82
2022/11/05 01:43:48;;;;;;;2.77;2.50;;;11.70;78.80;11.80;96084.00;;;;5007136;28;20214;-83
2022/11/05 01:46:19;;;;;;;4.33;2.37;;;11.70;79.00;11.80;96095.00;;;;5013236;28;20190;-83
2022/11/05 01:48:52;;;;;;;2.37;2.17;;;11.70;79.00;11.80;96090.00;;;;5015327;28;20285;-83
2022/11/05 01:51:27;;;;;;;2.60;2.40;;;11.70;79.10;11.80;96095.00;;;;5005374;28;20289;-82
2022/11/05 01:54:00;;;;;;;2.83;2.53;;;11.70;79.10;11.80;96101.00;;;;5009762;28;20234;-83
2022/11/05 01:56:32;;;;;;;2.70;2.50;;;11.70;79.20;11.80;96100.00;;;;5005748;28;20707;-82
2022/11/05 01:59:05;;;;;;;3.37;2.70;;;11.70;79.20;11.80;96105.00;;;;5008331;28;20202;-83
2022/11/05 02:01:33;;;;;;;2.20;2.10;;;11.70;79.20;11.80;96093.00;;;;5009187;28;20202;-82
2022/11/05 02:04:07;;;;;;;3.17;2.40;;;11.70;79.30;11.80;96092.00;;;;5010518;28;20230;-82
2022/11/05 02:06:44;;;;;;;2.50;2.27;;;11.70;79.10;11.80;96097.00;;;;5009299;28;20202;-83
2022/11/05 02:09:20;;;;;;;2.27;2.17;;;11.70;79.00;11.80;96094.00;;;;5008744;28;20237;-83
2022/11/05 02:11:49;;;;;;;2.70;2.50;;;11.70;79.10;11.70;96096.00;;;;5010788;28;20200;-82
2022/11/05 02:14:17;;;;;;;3.00;2.80;;;11.60;79.10;11.70;96093.00;;;;5011625;28;20310;-83
2022/11/05 02:16:50;;;;;;;2.67;2.47;;;11.60;79.10;11.70;96089.00;;;;5016405;28;20210;-81
2022/11/05 02:20:29;;;;;;;3.87;2.20;;;11.60;79.10;11.70;96097.00;;;;5015418;28;20264;-83
2022/11/05 02:23:56;;;;;;;2.33;2.20;;;11.60;79.10;11.70;96104.00;;;;4980164;28;20297;-81
2022/11/05 02:27:11;;;;;;;2.67;2.40;;;11.60;79.10;11.70;96104.00;;;;4975387;28;20213;-82
2022/11/05 02:30:07;;;;;;;2.10;2.00;;;11.60;79.80;11.70;96101.00;;;;5011394;28;20268;-83
2022/11/05 02:33:09;;;;;;;2.40;2.03;;;11.60;79.00;11.60;96107.00;;;;5008405;28;20290;-83
2022/11/05 02:36:00;;;;;;;2.53;1.87;;;11.60;79.10;11.70;96109.00;;;;5008887;28;20218;-83
2022/11/05 02:38:41;;;;;;;2.47;2.27;;;11.60;79.10;11.60;96112.00;;;;5014800;28;20667;-83
2022/11/05 02:41:22;;;;;;;2.37;2.17;;;11.50;79.10;11.60;96112.00;;;;5005108;28;20226;-83
2022/11/05 02:44:04;;;;;;;2.07;1.97;;;11.50;79.10;11.60;96116.00;;;;5010462;28;20261;-83
2022/11/05 02:46:44;;;;;;;2.60;2.20;;;11.50;79.00;11.60;96112.00;;;;5007094;28;20193;-83
2022/11/05 02:49:26;;;;;;;2.27;2.13;;;11.50;79.00;11.60;96111.00;;;;5005118;28;20229;-84
2022/11/05 02:51:58;;;;;;;2.40;1.90;;;11.50;79.00;11.60;96111.00;;;;5007287;28;20241;-83
2022/11/05 02:54:32;;;;;;;4.47;2.40;;;11.50;78.90;11.50;96112.00;;;;5008055;28;20241;-83
2022/11/05 02:57:02;;;;;;;2.50;1.90;;;11.50;78.80;11.50;96113.00;;;;5005843;28;20245;-83
2022/11/05 02:59:29;;;;;;;2.50;2.30;;;11.40;78.80;11.50;96114.00;;;;5009419;28;20613;-83
2022/11/05 03:01:59;;;;;;;2.60;2.40;;;11.40;79.00;11.50;96116.00;;;;5009644;28;20237;-81
2022/11/05 03:04:28;;;;;;;2.87;2.47;;;11.40;79.10;11.50;96119.00;;;;5010474;28;20293;-81
2022/11/05 03:07:20;;;;;;;2.33;2.20;;;11.40;79.10;11.60;96124.00;;;;5004842;28;20238;-83
2022/11/05 03:10:33;;;;;;;2.53;2.33;;;11.40;79.10;11.60;96127.00;;;;5006931;28;20218;-83
2022/11/05 03:13:17;;;;;;;2.17;2.07;;;11.40;79.20;11.60;96132.00;;;;5006242;28;20675;-81
2022/11/05 03:16:00;;;;;;;2.53;2.40;;;11.40;79.30;11.60;96144.00;;;;5007643;28;20632;-82
2022/11/05 03:18:39;;;;;;;2.93;2.47;;;11.40;79.50;11.60;96145.00;;;;5007358;28;20230;-83
2022/11/05 03:21:17;;;;;;;2.37;2.17;;;11.40;79.60;11.60;96144.00;;;;5007779;28;20222;-83
2022/11/05 03:23:51;;;;;;;2.43;2.23;;;11.50;79.70;11.70;96159.00;;;;5008405;28;20227;-83
2022/11/05 03:26:25;;;;;;;2.50;2.30;;;11.50;80.40;11.70;96162.00;;;;5007168;28;20281;-82
2022/11/05 03:28:59;;;;;;;2.10;1.90;;;11.50;79.80;11.70;96166.00;;;;5003722;28;20230;-83
2022/11/05 03:31:30;;;;;;;2.60;2.40;;;11.50;79.90;11.70;96174.00;;;;5006710;28;20671;-83
2022/11/05 03:34:01;;;;;;;2.37;2.20;;;11.50;80.00;11.70;96170.00;;;;5011187;28;20703;-83
2022/11/05 03:36:36;;;;;;;2.07;1.97;;;11.50;79.90;11.70;96176.00;;;;5007570;28;20233;-82
2022/11/05 03:39:10;;;;;;;2.10;2.00;;;11.50;80.00;11.70;96176.00;;;;5007998;28;20209;-83
2022/11/05 03:41:42;;;;;;;2.27;2.17;;;11.60;80.70;11.80;96182.00;;;;5005370;28;20206;-83
2022/11/05 03:44:14;;;;;;;2.70;2.50;;;11.60;80.00;11.80;96183.00;;;;5006644;28;20246;-83
2022/11/05 03:46:48;;;;;;;2.60;2.40;;;11.60;80.20;11.80;96189.00;;;;5006155;28;20264;-82
2022/11/05 03:49:24;;;;;;;3.83;2.03;;;11.60;80.20;11.80;96196.00;;;;5006079;28;20225;-83
2022/11/05 03:52:01;;;;;;;2.20;2.10;;;11.60;80.10;11.90;96202.00;;;;5005334;28;20502;-83
2022/11/05 03:54:28;;;;;;;2.17;2.07;;;11.70;80.20;11.90;96211.00;;;;5005907;28;20245;-83
2022/11/05 03:57:06;;;;;;;2.50;2.30;;;11.70;80.10;11.90;96201.00;;;;5007204;28;20248;-83
2022/11/05 03:59:41;;;;;;;3.20;2.47;;;11.70;80.10;11.90;96203.00;;;;5005096;28;20218;-81
2022/11/05 04:02:10;;;;;;;2.50;2.30;;;11.70;80.00;11.90;96203.00;;;;5005113;28;20213;-83
2022/11/05 04:04:38;;;;;;;2.07;1.97;;;11.70;80.00;11.90;96200.00;;;;5011887;28;20320;-82
2022/11/05 04:15:22;;;;;;;8.27;2.23;;;11.80;80.00;12.00;96230.00;;;;5005709;28;20297;-83
2022/11/05 04:17:48;;;;;;;2.30;2.10;;;11.80;79.90;12.00;96229.00;;;;5014575;28;20724;-83
2022/11/05 04:25:46;;;;;;;1.90;1.80;;;11.80;79.90;12.00;96235.00;;;;4988707;28;20270;-83
2022/11/05 04:28:14;;;;;;;2.07;1.90;;;11.90;79.80;12.00;96228.00;;;;5012155;28;20659;-82
2022/11/05 04:30:40;;;;;;;2.33;2.13;;;11.80;79.70;12.00;96229.00;;;;5010780;28;20274;-83
2022/11/05 04:33:11;;;;;;;2.40;2.20;;;11.80;79.70;12.00;96228.00;;;;5017629;28;20213;-83
2022/11/05 04:35:40;;;;;;;2.23;2.13;;;11.80;79.70;12.10;96236.00;;;;5015334;28;20230;-82
2022/11/05 04:38:13;;;;;;;2.10;1.93;;;11.80;79.80;12.10;96228.00;;;;5008800;28;20234;-83
2022/11/05 04:40:41;;;;;;;2.43;2.23;;;11.90;79.90;12.10;96232.00;;;;5013004;28;20263;-82
2022/11/05 04:43:11;;;;;;;2.50;2.17;;;11.90;80.00;12.10;96233.00;;;;5005611;28;20609;-82
2022/11/05 04:45:39;;;;;;;2.50;2.30;;;11.90;80.10;12.10;96233.00;;;;5008218;28;20253;-81
2022/11/05 04:48:07;;;;;;;2.60;2.40;;;11.90;80.00;12.10;96241.00;;;;5013237;28;20647;-83
2022/11/05 04:50:35;;;;;;;2.37;2.27;;;11.90;80.00;12.10;96233.00;;;;5013194;28;20208;-82
2022/11/05 04:53:02;;;;;;;2.00;1.80;;;11.90;80.10;12.10;96242.00;;;;5009778;28;20246;-82
2022/11/05 04:55:31;;;;;;;2.30;2.10;;;11.90;80.20;12.10;96235.00;;;;5012157;28;20539;-83
2022/11/05 04:57:58;;;;;;;2.40;2.20;;;11.90;80.30;12.20;96241.00;;;;5008471;28;20222;-82
2022/11/05 05:00:25;;;;;;;2.73;2.53;;;11.90;80.30;12.20;96246.00;;;;5010531;28;20784;-83
2022/11/05 05:02:52;;;;;;;2.20;2.10;;;12.00;80.40;12.20;96248.00;;;;5018097;28;20252;-82
2022/11/05 05:05:21;;;;;;;2.40;2.20;;;12.00;80.40;12.20;96249.00;;;;5022520;28;20320;-82
2022/11/05 05:07:48;;;;;;;2.10;2.00;;;12.00;80.50;12.20;96246.00;;;;5005848;28;20299;-82
2022/11/05 05:10:17;;;;;;;2.00;1.90;;;12.00;80.40;12.20;96249.00;;;;5010936;28;20285;-83
2022/11/05 05:12:47;;;;;;;2.30;2.10;;;12.00;80.40;12.20;96254.00;;;;5010670;28;20207;-84
2022/11/05 05:15:14;;;;;;;2.73;2.20;;;12.00;80.30;12.20;96252.00;;;;5012675;28;20230;-84
2022/11/05 05:17:41;;;;;;;6.43;2.40;;;12.10;80.40;12.30;96266.00;;;;5011946;28;20277;-84
2022/11/05 05:23:08;;;;;;;2.43;2.23;;;12.10;80.40;12.30;96259.00;;;;4968936;28;20204;-84
2022/11/05 05:25:35;;;;;;;2.40;2.20;;;12.10;80.20;12.30;96262.00;;;;4968122;28;20306;-85
2022/11/05 05:28:04;;;;;;;6.00;2.13;;;12.10;80.10;12.30;96262.00;;;;4986311;28;20299;-85
2022/11/05 05:30:31;;;;;;;2.70;2.37;;;12.10;80.30;12.30;96261.00;;;;5009401;28;20214;-84
2022/11/05 05:33:03;;;;;;;2.37;2.17;;;12.10;80.30;12.30;96262.00;;;;5011049;28;20225;-83
2022/11/05 05:35:30;;;;;;;2.20;2.10;;;12.10;80.20;12.30;96260.00;;;;5008655;28;20293;-84
2022/11/05 05:37:57;;;;;;;2.40;2.20;;;12.10;80.30;12.30;96267.00;;;;5008264;28;20664;-84
2022/11/05 05:40:24;;;;;;;2.73;2.53;;;12.10;80.40;12.30;96271.00;;;;5008890;28;20222;-84
2022/11/05 05:42:54;;;;;;;2.77;2.47;;;12.10;80.50;12.30;96273.00;;;;5012818;28;20236;-84
2022/11/05 05:45:23;;;;;;;2.60;2.23;;;12.10;80.50;12.30;96275.00;;;;5007715;28;20243;-85
2022/11/05 05:47:50;;;;;;;8.93;2.80;;;12.10;80.60;12.30;96278.00;;;;5003598;28;20241;-85
2022/11/05 05:50:17;;;;;;;3.27;2.63;;;12.20;80.70;12.40;96277.00;;;;5005837;28;20230;-86
2022/11/05 05:52:47;;;;;;;2.77;2.50;;;12.20;80.70;12.40;96274.00;;;;5009471;28;20205;-84
2022/11/05 05:55:14;;;;;;;3.33;2.70;;;12.20;80.60;12.40;96281.00;;;;5006739;28;20226;-84
2022/11/05 05:57:41;;;;;;;3.40;3.10;;;12.20;80.60;12.40;96281.00;;;;5009046;28;20214;-85
2022/11/05 06:00:10;;;;;;;3.33;3.03;;;12.20;80.70;12.40;96291.00;;;;5006688;28;20639;-84
2022/11/05 06:02:39;;;;;;;3.30;3.00;;;12.20;80.90;12.40;96281.00;;;;5013212;28;20221;-84
2022/11/05 06:05:07;;;;;;;3.47;3.17;;;12.20;81.00;12.40;96290.00;;;;5010734;28;20269;-84
2022/11/05 06:07:34;;;;;;;2.97;2.77;;;12.20;81.00;12.40;96289.00;;;;5012549;28;20241;-85
2022/11/05 06:10:01;;;;;;;2.63;2.43;;;12.20;81.00;12.40;96291.00;;;;5008593;28;20667;-84
2022/11/05 06:12:30;;;;;;;2.77;2.57;;;12.20;80.90;12.40;96294.00;;;;5010147;28;20206;-84
2022/11/05 06:14:57;;;;;;;2.77;2.57;;;12.20;81.00;12.40;96298.00;;;;5009088;28;20313;-84
2022/11/05 06:17:26;;;;;;;3.00;2.80;;;12.20;81.00;12.50;96301.00;;;;5006099;28;20633;-85
2022/11/05 06:19:55;;;;;;;2.70;2.50;;;12.30;81.00;12.50;96308.00;;;;5018524;28;20226;-84
2022/11/05 06:22:22;;;;;;;3.00;2.67;;;12.30;81.10;12.50;96313.00;;;;5010397;28;20210;-85
2022/11/05 06:24:49;;;;;;;3.67;3.23;;;12.30;81.20;12.50;96318.00;;;;5007909;28;20249;-84
2022/11/05 06:27:16;;;;;;;3.67;3.37;;;12.30;81.20;12.50;96324.00;;;;5006971;28;20238;-86
2022/11/05 06:29:44;;;;;;;3.20;3.00;;;12.30;81.20;12.50;96327.00;;;;5009482;28;20210;-85
2022/11/05 06:32:11;;;;;;;3.50;3.20;;;12.30;81.10;12.60;96337.00;;;;5007631;28;20210;-85
2022/11/05 06:34:39;;;;;;;3.70;3.40;;;12.30;81.10;12.60;96336.00;;;;5006425;28;20252;-84
2022/11/05 06:37:08;;;;;;;4.93;3.47;;;12.40;81.10;12.60;96340.00;;;;5009730;28;20206;-84
2022/11/05 06:39:35;;;;;;;3.33;3.03;;;12.40;81.10;12.60;96334.00;;;;5006674;28;20229;-84
2022/11/05 06:42:02;;;;;;;3.73;3.50;;;12.40;81.10;12.60;96340.00;;;;5009053;28;20602;-84
2022/11/05 06:44:30;;;;;;;3.17;2.97;;;12.40;81.20;12.60;96342.00;;;;5006004;28;20305;-84
2022/11/05 06:46:57;;;;;;;4.73;3.47;;;12.40;81.20;12.70;96349.00;;;;5013362;28;20314;-85
2022/11/05 06:49:24;;;;;;;4.13;3.53;;;12.40;81.20;12.70;96348.00;;;;5012888;28;20268;-85
2022/11/05 06:51:51;;;;;;;3.33;3.03;;;12.50;81.20;12.70;96348.00;;;;5006776;28;20221;-85
2022/11/05 06:54:20;;;;;;;4.20;3.90;;;12.50;81.10;12.70;96363.00;;;;5009963;28;20226;-85
2022/11/05 06:56:47;;;;;;;4.07;3.73;;;12.50;81.10;12.80;96370.00;;;;5006331;28;20237;-84
2022/11/05 06:59:17;;;;;;;3.93;3.50;;;12.60;81.20;12.80;96370.00;;;;5020913;23;20325;-91
2022/11/05 07:01:44;;;;;;;3.50;3.30;;;12.60;81.20;12.80;96370.00;;;;5016487;28;20280;-91
2022/11/05 07:04:12;;;;;;;5.53;3.53;;;12.60;81.20;12.80;96377.00;;;;5018875;28;20210;-91
2022/11/05 07:06:39;;;;;;;4.27;3.90;;;12.60;81.30;12.90;96386.00;;;;5024334;28;20235;-91
2022/11/05 07:09:07;;;;;;;3.90;3.60;;;12.70;81.40;12.90;96370.00;;;;5019872;28;20315;-91
2022/11/05 07:11:35;;;;;;;4.27;3.87;;;12.60;81.10;12.90;96374.00;;;;5019860;28;20298;-91
2022/11/05 07:14:02;;;;;;;3.93;3.60;;;12.60;81.20;12.90;96376.00;;;;5018901;28;20249;-90
2022/11/05 07:16:29;;;;;;;3.83;3.53;;;12.80;81.30;13.00;96397.00;;;;5021231;28;20247;-90
2022/11/05 07:18:57;;;;;;;3.40;3.20;;;12.70;81.20;13.00;96379.00;;;;5019916;28;20299;-91
2022/11/05 07:21:24;;;;;;;5.00;4.53;;;11.70;80.60;13.00;96398.00;;;;5022754;28;20213;-91
2022/11/05 07:23:51;;;;;;;4.80;4.30;;;12.80;81.30;13.00;96402.00;;;;5016254;28;20202;-90
2022/11/05 07:26:20;;;;;;;4.43;4.03;;;12.70;81.20;13.10;96393.00;;;;5023532;28;20276;-91
2022/11/05 07:28:49;;;;;;;5.63;4.50;;;12.80;81.20;13.10;96407.00;;;;5022756;28;20228;-90
2022/11/05 07:31:16;;;;;;;4.40;4.10;;;12.80;81.40;13.20;96400.00;;;;5020421;28;20213;-91
2022/11/05 07:33:43;;;;;;;4.37;4.07;;;12.80;81.40;13.20;96407.00;;;;5026337;28;20260;-90
2022/11/05 07:36:10;;;;;;;4.57;4.17;;;12.90;81.30;13.20;96410.00;;;;5024042;28;20293;-91
2022/11/05 07:38:37;;;;;;;4.30;3.90;;;12.90;81.30;13.30;96416.00;;;;5019357;28;20304;-90
2022/11/05 07:41:07;;;;;;;4.30;3.97;;;12.90;81.30;13.20;96402.00;;;;5022281;28;20252;-90
2022/11/05 07:43:34;;;;;;;4.80;4.40;;;13.00;81.40;13.30;96415.00;;;;5023063;28;20285;-91
2022/11/05 07:46:03;;;;;;;3.97;3.67;;;13.00;81.30;13.40;96423.00;;;;5022678;28;20225;-91
2022/11/05 07:48:30;;;;;;;4.37;3.80;;;13.00;81.20;13.40;96434.00;;;;5021162;28;20602;-90
2022/11/05 07:50:57;;;;;;;4.00;3.70;;;13.10;81.10;13.40;96425.00;;;;5023259;28;20210;-91
2022/11/05 07:53:24;;;;;;;4.67;4.27;;;13.10;81.10;13.40;96430.00;;;;5023993;28;20284;-91
2022/11/05 07:55:56;;;;;;;5.00;4.03;;;13.10;81.10;13.40;96431.00;;;;5024033;28;20259;-90
2022/11/05 07:58:25;;;;;;;4.10;3.80;;;13.10;81.10;13.50;96433.00;;;;5024108;28;20404;-90
2022/11/05 08:00:52;;;;;;;4.43;4.03;;;13.20;81.20;13.50;96424.00;;;;5029605;28;20259;-91
2022/11/05 08:03:21;;;;;;;3.83;3.53;;;13.20;81.30;13.50;96433.00;;;;5028255;28;20232;-91
2022/11/05 08:05:49;;;;;;;4.13;3.83;;;13.20;81.20;13.60;96440.00;;;;5015516;28;20225;-90
2022/11/05 08:08:18;;;;;;;3.50;3.30;;;13.20;81.20;13.60;96436.00;;;;5028080;28;20312;-90
2022/11/05 08:10:46;;;;;;;6.30;3.77;;;13.50;81.10;13.60;96428.00;;;;5027285;28;20304;-91
2022/11/05 08:13:19;;;;;;;3.40;3.10;;;13.30;81.00;13.60;96428.00;;;;5024341;28;20213;-91
2022/11/05 08:15:49;;;;;;;3.87;3.57;;;13.30;80.90;13.60;96434.00;;;;5026266;28;20208;-90
2022/11/05 08:18:18;;;;;;;3.60;3.40;;;12.90;80.50;13.70;96429.00;;;;5022382;28;20214;-91
2022/11/05 08:20:47;;;;;;;3.30;3.10;;;13.30;80.90;13.70;96426.00;;;;5026960;28;20209;-90
2022/11/05 08:23:14;;;;;;;5.33;3.20;;;13.40;81.00;13.70;96440.00;;;;5024280;28;20341;-91
2022/11/05 08:25:42;;;;;;;4.97;3.07;;;13.40;81.10;13.80;96442.00;;;;5023572;28;20287;-91
2022/11/05 08:28:12;;;;;;;2.97;2.77;;;13.40;81.20;13.80;96448.00;;;;5030282;28;20201;-91
2022/11/05 08:30:40;;;;;;;3.00;2.80;;;13.50;81.90;13.80;96438.00;;;;5027038;28;20264;-90
2022/11/05 08:33:10;;;;;;;2.70;2.50;;;13.50;81.20;13.90;96444.00;;;;5024554;28;20694;-91
2022/11/05 08:35:39;;;;;;;2.90;2.70;;;13.60;81.20;13.90;96458.00;;;;5026901;28;20233;-91
2022/11/05 08:38:12;;;;;;;2.77;2.40;;;13.60;81.10;14.00;96457.00;;;;5020844;28;20650;-91
2022/11/05 08:40:40;;;;;;;2.77;2.57;;;13.70;81.00;14.00;96446.00;;;;5016025;28;20268;-91
2022/11/05 08:43:10;;;;;;;2.70;2.50;;;13.60;80.90;14.00;96449.00;;;;5020430;28;20238;-91
2022/11/05 08:45:39;;;;;;;3.03;2.83;;;13.70;80.90;14.00;96452.00;;;;5026429;28;20353;-90
2022/11/05 08:48:09;;;;;;;2.80;2.60;;;13.70;80.90;14.10;96459.00;;;;5024023;28;20206;-91
2022/11/05 08:50:39;;;;;;;2.70;2.50;;;12.10;79.70;14.10;96446.00;;;;5021869;28;20202;-91
2022/11/05 08:53:19;;;;;;;2.47;2.27;;;13.80;80.80;14.10;96448.00;;;;5026021;28;20239;-90
2022/11/05 08:55:49;;;;;;;2.73;2.53;;;13.80;80.60;14.10;96465.00;;;;5024453;28;20205;-91
2022/11/05 08:58:21;;;;;;;2.83;2.63;;;13.80;80.70;14.20;96463.00;;;;5031332;28;20271;-90
2022/11/05 09:03:35;;;;;;;2.70;2.53;;;13.90;80.90;14.20;96455.00;;;;5024587;28;20213;-90
2022/11/05 09:06:02;;;;;;;3.20;2.53;;;13.90;80.70;14.30;96468.00;;;;5020663;28;20222;-91
2022/11/05 09:08:31;;;;;;;3.13;2.93;;;13.90;80.80;14.40;96453.00;;;;5027014;28;20279;-91
2022/11/05 09:11:00;;;;;;;2.67;2.47;;;13.90;80.80;14.40;96467.00;;;;5023850;28;20213;-90
2022/11/05 09:13:28;;;;;;;2.67;2.47;;;14.00;80.70;14.40;96468.00;;;;5031197;28;20676;-91
2022/11/05 09:15:57;;;;;;;2.60;2.40;;;14.00;80.70;14.50;96472.00;;;;5022510;28;20232;-91
2022/11/05 09:18:24;;;;;;;3.27;2.97;;;14.10;80.60;14.50;96470.00;;;;5022147;28;20206;-91
2022/11/05 09:20:52;;;;;;;3.00;2.70;;;14.10;80.60;14.50;96477.00;;;;5023498;28;20198;-90
2022/11/05 09:23:19;;;;;;;3.57;3.10;;;14.10;80.70;14.60;96469.00;;;;5026913;28;20629;-91
2022/11/05 09:25:48;;;;;;;3.10;2.83;;;14.10;80.60;14.60;96456.00;;;;5025154;28;20209;-90
2022/11/05 09:28:20;;;;;;;3.27;2.97;;;14.20;80.80;14.70;96477.00;;;;5031510;28;20231;-91
2022/11/05 09:30:50;;;;;;;3.03;2.83;;;14.40;80.90;14.70;96479.00;;;;5029631;28;20217;-90
2022/11/05 09:33:20;;;;;;;3.33;2.90;;;14.30;80.80;14.70;96469.00;;;;5026779;28;20209;-91
2022/11/05 09:35:48;;;;;;;2.70;2.50;;;14.40;80.80;14.70;96485.00;;;;5020265;28;20210;-91
2022/11/05 09:38:15;;;;;;;2.80;2.60;;;14.40;80.50;14.70;96474.00;;;;5025567;28;20760;-91
2022/11/05 09:40:55;;;;;;;2.67;2.47;;;14.40;80.40;14.70;96477.00;;;;5022190;28;20206;-91
2022/11/05 09:43:29;;;;;;;2.53;2.37;;;14.40;80.00;14.70;96489.00;;;;5023225;28;20596;-91
2022/11/05 09:46:03;;;;;;;2.97;2.77;;;14.40;80.10;14.70;96478.00;;;;5024308;28;20202;-92
2022/11/05 09:48:33;;;;;;;2.47;2.27;;;14.40;80.10;14.70;96500.00;;;;5016529;28;20275;-91
2022/11/05 09:51:04;;;;;;;2.30;2.10;;;14.40;79.90;14.80;96492.00;;;;5026291;28;20623;-91
2022/11/05 09:53:31;;;;;;;2.33;2.23;;;14.50;80.00;14.80;96491.00;;;;5014607;28;20660;-90
2022/11/05 09:56:01;;;;;;;2.40;2.20;;;14.50;79.90;14.80;96495.00;;;;5024973;28;20209;-90
2022/11/05 09:58:44;;;;;;;2.27;2.17;;;14.50;79.80;14.80;96503.00;;;;5021460;28;20205;-91
2022/11/05 10:01:20;;;;;;;2.53;2.23;;;14.50;79.70;14.80;96498.00;;;;5021547;28;20676;-91
2022/11/05 10:03:55;;;;;;;2.70;2.40;;;14.50;79.80;14.90;96489.00;;;;5013857;28;20577;-91
2022/11/05 10:06:27;;;;;;;3.07;2.50;;;14.50;79.80;14.90;96502.00;;;;5021758;28;20248;-91
2022/11/05 10:09:02;;;;;;;2.10;2.00;;;14.50;79.80;14.90;96501.00;;;;5019211;28;20275;-90
2022/11/05 10:11:40;;;;;;;2.60;2.40;;;14.50;79.70;15.00;96512.00;;;;5020884;28;20212;-91
2022/11/05 10:14:16;;;;;;;2.20;2.00;;;14.60;79.70;15.00;96511.00;;;;5029774;28;20255;-90
2022/11/05 10:16:52;;;;;;;3.07;2.47;;;14.70;79.70;15.00;96517.00;;;;5018740;28;20413;-91
2022/11/05 10:19:24;;;;;;;2.60;2.40;;;14.60;79.80;15.00;96506.00;;;;5018647;28;20276;-90
2022/11/05 10:21:55;;;;;;;2.67;2.47;;;14.60;79.70;15.10;96519.00;;;;5021366;28;20208;-90
2022/11/05 10:24:23;;;;;;;2.27;2.17;;;14.50;80.30;15.10;96508.00;;;;5021803;28;20197;-91
2022/11/05 10:26:54;;;;;;;2.20;2.10;;;14.70;79.60;15.10;96516.00;;;;5021096;28;20320;-91
2022/11/05 10:29:28;;;;;;;2.47;2.27;;;14.70;79.40;15.10;96507.00;;;;5025382;28;20271;-90
2022/11/05 10:31:57;;;;;;;2.13;2.00;;;14.70;79.40;15.10;96523.00;;;;5027298;28;20213;-91
2022/11/05 10:34:30;;;;;;;2.10;2.00;;;14.70;79.50;15.10;96526.00;;;;5020683;28;20230;-91
2022/11/05 10:36:59;;;;;;;2.30;2.10;;;14.80;80.30;15.10;96516.00;;;;5020932;28;20208;-90
2022/11/05 10:39:27;;;;;;;2.20;2.10;;;14.70;79.50;15.10;96521.00;;;;5020619;28;20719;-91
2022/11/05 10:42:25;;;;;;;2.50;2.30;;;14.80;79.40;15.10;96525.00;;;;5024477;28;20204;-91
2022/11/05 10:45:07;;;;;;;2.27;2.10;;;14.80;79.30;15.20;96523.00;;;;5012963;28;20208;-91
2022/11/05 10:47:52;;;;;;;1.97;1.87;;;14.80;79.40;15.20;96522.00;;;;5020445;28;20599;-90
2022/11/05 10:50:24;;;;;;;1.60;1.50;;;14.80;79.30;15.20;96539.00;;;;5017661;28;20230;-91
2022/11/05 10:53:01;;;;;;;1.90;1.80;;;14.80;79.50;15.10;96528.00;;;;5020305;28;20201;-91
2022/11/05 10:55:35;;;;;;;1.90;1.80;;;14.90;79.60;15.20;96524.00;;;;5024216;28;20221;-91
2022/11/05 10:58:30;;;;;;;2.30;2.10;;;14.80;79.60;15.20;96549.00;;;;5024786;28;20204;-90
2022/11/05 11:01:10;;;;;;;1.80;1.70;;;14.90;79.20;15.30;96521.00;;;;5024651;28;20240;-91
2022/11/05 11:03:49;;;;;;;2.40;2.20;;;14.90;79.40;15.30;96520.00;;;;5022102;28;20229;-92
2022/11/05 11:06:24;;;;;;;1.50;1.40;;;14.90;79.50;15.30;96535.00;;;;5023625;28;20240;-91
2022/11/05 11:09:04;;;;;;;1.53;1.43;;;15.00;79.10;15.30;96538.00;;;;5025258;28;20229;-91
2022/11/05 11:11:36;;;;;;;1.87;1.77;;;14.90;79.00;15.40;96536.00;;;;5016753;28;20221;-91
2022/11/05 11:14:21;;;;;;;1.57;1.47;;;15.00;79.20;15.40;96530.00;;;;5018486;28;20296;-91
2022/11/05 11:16:55;;;;;;;1.50;1.40;;;15.00;79.10;15.40;96523.00;;;;5022069;28;20215;-90
2022/11/05 11:19:32;;;;;;;1.47;1.37;;;15.00;79.10;15.50;96520.00;;;;5021996;28;20221;-91
2022/11/05 11:22:22;;;;;;;1.07;1.07;;;15.10;78.70;15.50;96517.00;;;;5028236;28;20207;-91
2022/11/05 11:24:55;;;;;;;1.20;1.10;;;15.10;78.70;15.50;96526.00;;;;5019350;28;20580;-90
2022/11/05 11:27:28;;;;;;;0.90;0.90;;;15.10;78.80;15.50;96528.00;;;;5029346;28;20225;-91
2022/11/05 11:30:01;;;;;;;0.80;0.80;;;15.20;78.70;15.60;96540.00;;;;5024766;28;20279;-91
2022/11/05 11:32:36;;;;;;;1.10;1.10;;;15.20;78.30;15.60;96534.00;;;;5024272;28;20239;-90
2022/11/05 11:35:06;;;;;;;1.00;1.00;;;15.20;78.20;15.70;96548.00;;;;5020874;28;20544;-90
2022/11/05 11:37:40;;;;;;;1.10;1.10;;;15.30;78.50;15.70;96550.00;;;;5020095;28;20252;-90
2022/11/05 11:40:19;;;;;;;1.70;1.30;;;15.30;78.40;15.70;96545.00;;;;5024815;28;20250;-90
2022/11/05 11:42:51;;;;;;;1.10;0.90;;;15.30;78.20;15.70;96536.00;;;;5021423;28;20217;-90
2022/11/05 11:45:28;;;;;;;1.10;1.10;;;15.30;78.40;15.70;96538.00;;;;5028100;28;20209;-91
2022/11/05 11:48:02;;;;;;;0.93;0.93;;;15.40;78.20;15.70;96547.00;;;;5022604;28;20221;-90
2022/11/05 11:50:43;;;;;;;1.10;1.10;;;15.30;77.90;15.70;96547.00;;;;5013270;28;20232;-90
2022/11/05 11:53:30;;;;;;;1.17;1.07;;;15.40;77.10;15.70;96544.00;;;;5026009;28;20217;-90
2022/11/05 11:56:17;;;;;;;1.60;1.50;;;15.40;77.00;15.80;96539.00;;;;5010357;28;20229;-90
2022/11/05 11:58:52;;;;;;;1.50;1.40;;;15.40;77.30;15.80;96540.00;;;;5023270;28;20708;-91